sensor_id;sensor_type;location;lat;lon;timestamp;P1;durP1;ratioP1;P2;durP2;ratioP2
26963;SDS011;14521;48.148;-1.656;2024-03-22T00:02:24;0.98;;;0.98;;
26963;SDS011;14521;48.148;-1.656;2024-03-22T00:05:46;0.90;;;0.90;;
26963;SDS011;14521;48.148;-1.656;2024-03-22T00:09:07;0.70;;;0.70;;
26963;SDS011;14521;48.148;-1.656;2024-03-22T00:12:28;0.90;;;0.90;;
26963;SDS011;14521;48.148;-1.656;2024-03-22T00:15:50;1.08;;;1.02;;
26963;SDS011;14521;48.148;-1.656;2024-03-22T00:19:11;1.08;;;1.08;;
26963;SDS011;14521;48.148;-1.656;2024-03-22T00:22:32;1.10;;;1.00;;
26963;SDS011;14521;48.148;-1.656;2024-03-22T00:25:53;1.13;;;1.13;;
26963;SDS011;14521;48.148;-1.656;2024-03-22T00:29:15;1.20;;;1.10;;
26963;SDS011;14521;48.148;-1.656;2024-03-22T00:32:36;1.48;;;1.25;;
26963;SDS011;14521;48.148;-1.656;2024-03-22T00:35:58;1.10;;;1.10;;
26963;SDS011;14521;48.148;-1.656;2024-03-22T00:39:19;1.10;;;1.00;;
26963;SDS011;14521;48.148;-1.656;2024-03-22T00:42:40;2.10;;;1.08;;
26963;SDS011;14521;48.148;-1.656;2024-03-22T00:46:02;0.93;;;0.93;;
26963;SDS011;14521;48.148;-1.656;2024-03-22T00:49:23;1.40;;;0.90;;
26963;SDS011;14521;48.148;-1.656;2024-03-22T00:52:44;1.00;;;1.00;;
26963;SDS011;14521;48.148;-1.656;2024-03-22T00:56:06;1.00;;;1.00;;
26963;SDS011;14521;48.148;-1.656;2024-03-22T00:59:27;1.33;;;1.30;;
26963;SDS011;14521;48.148;-1.656;2024-03-22T01:02:49;1.85;;;0.80;;
26963;SDS011;14521;48.148;-1.656;2024-03-22T01:06:11;1.05;;;0.98;;
26963;SDS011;14521;48.148;-1.656;2024-03-22T01:09:32;1.13;;;1.13;;
26963;SDS011;14521;48.148;-1.656;2024-03-22T01:12:53;1.85;;;1.05;;
26963;SDS011;14521;48.148;-1.656;2024-03-22T01:16:15;2.10;;;1.00;;
26963;SDS011;14521;48.148;-1.656;2024-03-22T01:19:37;1.10;;;1.00;;
26963;SDS011;14521;48.148;-1.656;2024-03-22T01:22:59;1.30;;;1.23;;
26963;SDS011;14521;48.148;-1.656;2024-03-22T01:26:21;2.35;;;0.75;;
26963;SDS011;14521;48.148;-1.656;2024-03-22T01:29:42;1.75;;;1.00;;
26963;SDS011;14521;48.148;-1.656;2024-03-22T01:33:04;1.58;;;0.90;;
26963;SDS011;14521;48.148;-1.656;2024-03-22T01:36:25;0.80;;;0.80;;
26963;SDS011;14521;48.148;-1.656;2024-03-22T01:39:46;0.90;;;0.90;;
26963;SDS011;14521;48.148;-1.656;2024-03-22T01:43:08;0.90;;;0.90;;
26963;SDS011;14521;48.148;-1.656;2024-03-22T01:46:29;2.80;;;1.00;;
26963;SDS011;14521;48.148;-1.656;2024-03-22T01:49:51;1.00;;;0.88;;
26963;SDS011;14521;48.148;-1.656;2024-03-22T01:53:15;1.10;;;0.93;;
26963;SDS011;14521;48.148;-1.656;2024-03-22T01:56:37;1.33;;;1.00;;
26963;SDS011;14521;48.148;-1.656;2024-03-22T01:59:59;1.02;;;1.02;;
26963;SDS011;14521;48.148;-1.656;2024-03-22T02:03:21;0.93;;;0.90;;
26963;SDS011;14521;48.148;-1.656;2024-03-22T02:06:42;1.15;;;1.05;;
26963;SDS011;14521;48.148;-1.656;2024-03-22T02:10:04;2.22;;;1.20;;
26963;SDS011;14521;48.148;-1.656;2024-03-22T02:13:25;1.10;;;1.10;;
26963;SDS011;14521;48.148;-1.656;2024-03-22T02:16:47;0.90;;;0.90;;
26963;SDS011;14521;48.148;-1.656;2024-03-22T02:20:08;1.08;;;1.08;;
26963;SDS011;14521;48.148;-1.656;2024-03-22T02:23:34;1.00;;;1.00;;
26963;SDS011;14521;48.148;-1.656;2024-03-22T02:26:56;0.98;;;0.98;;
26963;SDS011;14521;48.148;-1.656;2024-03-22T02:30:18;0.90;;;0.90;;
26963;SDS011;14521;48.148;-1.656;2024-03-22T02:33:39;0.90;;;0.90;;
26963;SDS011;14521;48.148;-1.656;2024-03-22T02:37:01;1.90;;;1.10;;
26963;SDS011;14521;48.148;-1.656;2024-03-22T02:40:23;2.25;;;1.13;;
26963;SDS011;14521;48.148;-1.656;2024-03-22T02:43:44;0.90;;;0.90;;
26963;SDS011;14521;48.148;-1.656;2024-03-22T02:47:05;1.17;;;1.08;;
26963;SDS011;14521;48.148;-1.656;2024-03-22T02:50:27;3.25;;;1.00;;
26963;SDS011;14521;48.148;-1.656;2024-03-22T02:53:48;1.05;;;1.05;;
26963;SDS011;14521;48.148;-1.656;2024-03-22T02:57:10;1.00;;;0.90;;
26963;SDS011;14521;48.148;-1.656;2024-03-22T03:00:35;1.25;;;1.15;;
26963;SDS011;14521;48.148;-1.656;2024-03-22T03:07:18;1.17;;;1.00;;
26963;SDS011;14521;48.148;-1.656;2024-03-22T03:10:39;1.10;;;1.00;;
26963;SDS011;14521;48.148;-1.656;2024-03-22T03:14:01;0.90;;;0.90;;
26963;SDS011;14521;48.148;-1.656;2024-03-22T03:17:22;0.93;;;0.70;;
26963;SDS011;14521;48.148;-1.656;2024-03-22T03:20:44;0.93;;;0.93;;
26963;SDS011;14521;48.148;-1.656;2024-03-22T03:24:05;0.90;;;0.90;;
26963;SDS011;14521;48.148;-1.656;2024-03-22T03:27:26;0.90;;;0.90;;
26963;SDS011;14521;48.148;-1.656;2024-03-22T03:30:48;1.25;;;1.05;;
26963;SDS011;14521;48.148;-1.656;2024-03-22T03:34:09;1.10;;;1.10;;
26963;SDS011;14521;48.148;-1.656;2024-03-22T03:37:30;1.00;;;1.00;;
26963;SDS011;14521;48.148;-1.656;2024-03-22T03:40:52;1.00;;;1.00;;
26963;SDS011;14521;48.148;-1.656;2024-03-22T03:44:13;1.27;;;0.90;;
26963;SDS011;14521;48.148;-1.656;2024-03-22T03:47:35;0.70;;;0.70;;
26963;SDS011;14521;48.148;-1.656;2024-03-22T03:50:56;0.80;;;0.80;;
26963;SDS011;14521;48.148;-1.656;2024-03-22T03:54:23;0.80;;;0.80;;
26963;SDS011;14521;48.148;-1.656;2024-03-22T03:57:44;0.90;;;0.88;;
26963;SDS011;14521;48.148;-1.656;2024-03-22T04:01:06;0.80;;;0.80;;
26963;SDS011;14521;48.148;-1.656;2024-03-22T04:04:28;0.70;;;0.70;;
26963;SDS011;14521;48.148;-1.656;2024-03-22T04:07:49;0.90;;;0.90;;
26963;SDS011;14521;48.148;-1.656;2024-03-22T04:11:11;0.95;;;0.95;;
26963;SDS011;14521;48.148;-1.656;2024-03-22T04:14:32;1.23;;;1.13;;
26963;SDS011;14521;48.148;-1.656;2024-03-22T04:17:56;0.80;;;0.80;;
26963;SDS011;14521;48.148;-1.656;2024-03-22T04:21:17;0.60;;;0.60;;
26963;SDS011;14521;48.148;-1.656;2024-03-22T04:24:38;1.48;;;0.60;;
26963;SDS011;14521;48.148;-1.656;2024-03-22T04:28:00;0.70;;;0.70;;
26963;SDS011;14521;48.148;-1.656;2024-03-22T04:31:21;1.00;;;1.00;;
26963;SDS011;14521;48.148;-1.656;2024-03-22T04:34:43;2.72;;;0.85;;
26963;SDS011;14521;48.148;-1.656;2024-03-22T04:38:04;0.82;;;0.82;;
26963;SDS011;14521;48.148;-1.656;2024-03-22T04:41:25;0.93;;;0.93;;
26963;SDS011;14521;48.148;-1.656;2024-03-22T04:44:47;0.85;;;0.85;;
26963;SDS011;14521;48.148;-1.656;2024-03-22T04:48:08;0.70;;;0.70;;
26963;SDS011;14521;48.148;-1.656;2024-03-22T04:51:30;0.70;;;0.70;;
26963;SDS011;14521;48.148;-1.656;2024-03-22T04:54:51;1.27;;;1.17;;
26963;SDS011;14521;48.148;-1.656;2024-03-22T04:58:19;0.70;;;0.70;;
26963;SDS011;14521;48.148;-1.656;2024-03-22T05:01:42;0.70;;;0.70;;
26963;SDS011;14521;48.148;-1.656;2024-03-22T05:05:05;0.70;;;0.70;;
26963;SDS011;14521;48.148;-1.656;2024-03-22T05:08:26;0.75;;;0.75;;
26963;SDS011;14521;48.148;-1.656;2024-03-22T05:11:47;0.60;;;0.60;;
26963;SDS011;14521;48.148;-1.656;2024-03-22T05:15:11;1.13;;;0.90;;
26963;SDS011;14521;48.148;-1.656;2024-03-22T05:18:32;0.63;;;0.63;;
26963;SDS011;14521;48.148;-1.656;2024-03-22T05:21:54;0.80;;;0.80;;
26963;SDS011;14521;48.148;-1.656;2024-03-22T05:25:15;0.77;;;0.77;;
26963;SDS011;14521;48.148;-1.656;2024-03-22T05:28:37;0.80;;;0.73;;
26963;SDS011;14521;48.148;-1.656;2024-03-22T05:31:58;0.60;;;0.60;;
26963;SDS011;14521;48.148;-1.656;2024-03-22T05:35:22;0.57;;;0.57;;
26963;SDS011;14521;48.148;-1.656;2024-03-22T05:38:43;0.50;;;0.50;;
26963;SDS011;14521;48.148;-1.656;2024-03-22T05:42:05;0.50;;;0.50;;
26963;SDS011;14521;48.148;-1.656;2024-03-22T05:45:26;0.63;;;0.63;;
26963;SDS011;14521;48.148;-1.656;2024-03-22T05:48:47;0.60;;;0.60;;
26963;SDS011;14521;48.148;-1.656;2024-03-22T05:52:12;0.65;;;0.65;;
26963;SDS011;14521;48.148;-1.656;2024-03-22T05:55:34;0.65;;;0.65;;
26963;SDS011;14521;48.148;-1.656;2024-03-22T05:58:55;0.60;;;0.60;;
26963;SDS011;14521;48.148;-1.656;2024-03-22T06:02:16;0.68;;;0.68;;
26963;SDS011;14521;48.148;-1.656;2024-03-22T06:05:38;0.82;;;0.82;;
26963;SDS011;14521;48.148;-1.656;2024-03-22T06:08:59;0.57;;;0.50;;
26963;SDS011;14521;48.148;-1.656;2024-03-22T06:12:24;0.65;;;0.65;;
26963;SDS011;14521;48.148;-1.656;2024-03-22T06:15:46;0.63;;;0.63;;
26963;SDS011;14521;48.148;-1.656;2024-03-22T06:19:09;1.70;;;0.70;;
26963;SDS011;14521;48.148;-1.656;2024-03-22T06:22:31;0.70;;;0.70;;
26963;SDS011;14521;48.148;-1.656;2024-03-22T06:25:55;0.73;;;0.73;;
26963;SDS011;14521;48.148;-1.656;2024-03-22T06:29:17;0.88;;;0.88;;
26963;SDS011;14521;48.148;-1.656;2024-03-22T06:32:38;0.82;;;0.82;;
26963;SDS011;14521;48.148;-1.656;2024-03-22T06:35:59;1.30;;;0.80;;
26963;SDS011;14521;48.148;-1.656;2024-03-22T06:39:21;0.70;;;0.70;;
26963;SDS011;14521;48.148;-1.656;2024-03-22T06:42:42;0.60;;;0.60;;
26963;SDS011;14521;48.148;-1.656;2024-03-22T06:46:03;0.70;;;0.70;;
26963;SDS011;14521;48.148;-1.656;2024-03-22T06:49:25;0.55;;;0.52;;
26963;SDS011;14521;48.148;-1.656;2024-03-22T06:52:46;1.00;;;0.95;;
26963;SDS011;14521;48.148;-1.656;2024-03-22T06:56:08;1.05;;;1.00;;
26963;SDS011;14521;48.148;-1.656;2024-03-22T06:59:29;4.20;;;1.08;;
26963;SDS011;14521;48.148;-1.656;2024-03-22T07:02:51;0.70;;;0.70;;
26963;SDS011;14521;48.148;-1.656;2024-03-22T07:06:13;1.00;;;1.00;;
26963;SDS011;14521;48.148;-1.656;2024-03-22T07:09:35;1.98;;;1.20;;
26963;SDS011;14521;48.148;-1.656;2024-03-22T07:12:56;1.48;;;0.98;;
26963;SDS011;14521;48.148;-1.656;2024-03-22T07:16:18;2.17;;;1.20;;
26963;SDS011;14521;48.148;-1.656;2024-03-22T07:19:39;1.05;;;1.02;;
26963;SDS011;14521;48.148;-1.656;2024-03-22T07:23:01;2.50;;;0.90;;
26963;SDS011;14521;48.148;-1.656;2024-03-22T07:26:22;1.33;;;1.05;;
26963;SDS011;14521;48.148;-1.656;2024-03-22T07:29:44;5.07;;;0.90;;
26963;SDS011;14521;48.148;-1.656;2024-03-22T07:33:06;1.02;;;0.80;;
26963;SDS011;14521;48.148;-1.656;2024-03-22T07:36:27;1.10;;;1.00;;
26963;SDS011;14521;48.148;-1.656;2024-03-22T07:39:51;1.05;;;1.05;;
26963;SDS011;14521;48.148;-1.656;2024-03-22T07:43:13;0.90;;;0.90;;
26963;SDS011;14521;48.148;-1.656;2024-03-22T07:46:37;1.25;;;1.00;;
26963;SDS011;14521;48.148;-1.656;2024-03-22T07:49:59;1.00;;;1.00;;
26963;SDS011;14521;48.148;-1.656;2024-03-22T07:53:20;0.82;;;0.82;;
26963;SDS011;14521;48.148;-1.656;2024-03-22T07:56:41;1.83;;;0.80;;
26963;SDS011;14521;48.148;-1.656;2024-03-22T08:00:03;0.70;;;0.70;;
26963;SDS011;14521;48.148;-1.656;2024-03-22T08:03:32;1.60;;;1.50;;
26963;SDS011;14521;48.148;-1.656;2024-03-22T08:06:53;1.00;;;1.00;;
26963;SDS011;14521;48.148;-1.656;2024-03-22T08:10:15;1.25;;;1.15;;
26963;SDS011;14521;48.148;-1.656;2024-03-22T08:13:36;1.05;;;1.05;;
26963;SDS011;14521;48.148;-1.656;2024-03-22T08:16:58;0.90;;;0.90;;
26963;SDS011;14521;48.148;-1.656;2024-03-22T08:20:19;1.00;;;0.90;;
26963;SDS011;14521;48.148;-1.656;2024-03-22T08:23:40;1.30;;;0.93;;
26963;SDS011;14521;48.148;-1.656;2024-03-22T08:27:02;1.13;;;1.10;;
26963;SDS011;14521;48.148;-1.656;2024-03-22T08:30:24;1.13;;;1.10;;
26963;SDS011;14521;48.148;-1.656;2024-03-22T08:33:45;1.20;;;1.10;;
26963;SDS011;14521;48.148;-1.656;2024-03-22T08:37:07;0.70;;;0.70;;
26963;SDS011;14521;48.148;-1.656;2024-03-22T08:40:29;1.05;;;1.05;;
26963;SDS011;14521;48.148;-1.656;2024-03-22T08:43:51;2.28;;;0.90;;
26963;SDS011;14521;48.148;-1.656;2024-03-22T08:47:12;1.60;;;1.05;;
26963;SDS011;14521;48.148;-1.656;2024-03-22T08:50:34;2.03;;;1.17;;
26963;SDS011;14521;48.148;-1.656;2024-03-22T08:53:55;2.63;;;1.38;;
26963;SDS011;14521;48.148;-1.656;2024-03-22T08:57:16;1.30;;;1.30;;
26963;SDS011;14521;48.148;-1.656;2024-03-22T09:00:38;1.23;;;1.13;;
26963;SDS011;14521;48.148;-1.656;2024-03-22T09:03:59;1.02;;;1.00;;
26963;SDS011;14521;48.148;-1.656;2024-03-22T09:07:20;1.95;;;1.00;;
26963;SDS011;14521;48.148;-1.656;2024-03-22T09:10:42;0.98;;;0.98;;
26963;SDS011;14521;48.148;-1.656;2024-03-22T09:14:03;0.80;;;0.80;;
26963;SDS011;14521;48.148;-1.656;2024-03-22T09:17:24;1.00;;;1.00;;
26963;SDS011;14521;48.148;-1.656;2024-03-22T09:20:45;0.98;;;0.98;;
26963;SDS011;14521;48.148;-1.656;2024-03-22T09:24:07;1.35;;;1.25;;
26963;SDS011;14521;48.148;-1.656;2024-03-22T09:27:28;1.30;;;1.20;;
26963;SDS011;14521;48.148;-1.656;2024-03-22T09:30:50;1.10;;;1.10;;
26963;SDS011;14521;48.148;-1.656;2024-03-22T09:34:14;1.20;;;0.98;;
26963;SDS011;14521;48.148;-1.656;2024-03-22T09:37:36;1.13;;;1.13;;
26963;SDS011;14521;48.148;-1.656;2024-03-22T09:40:58;1.45;;;1.35;;
26963;SDS011;14521;48.148;-1.656;2024-03-22T09:44:19;1.00;;;1.00;;
26963;SDS011;14521;48.148;-1.656;2024-03-22T09:47:40;0.77;;;0.77;;
26963;SDS011;14521;48.148;-1.656;2024-03-22T09:51:02;1.48;;;1.17;;
26963;SDS011;14521;48.148;-1.656;2024-03-22T09:54:23;2.22;;;1.10;;
26963;SDS011;14521;48.148;-1.656;2024-03-22T09:57:46;1.20;;;1.20;;
26963;SDS011;14521;48.148;-1.656;2024-03-22T10:01:10;1.83;;;1.00;;
26963;SDS011;14521;48.148;-1.656;2024-03-22T10:04:33;1.40;;;1.30;;
26963;SDS011;14521;48.148;-1.656;2024-03-22T10:07:57;1.42;;;1.33;;
26963;SDS011;14521;48.148;-1.656;2024-03-22T10:11:18;1.50;;;1.40;;
26963;SDS011;14521;48.148;-1.656;2024-03-22T10:14:42;1.33;;;1.33;;
26963;SDS011;14521;48.148;-1.656;2024-03-22T10:18:04;1.63;;;1.58;;
26963;SDS011;14521;48.148;-1.656;2024-03-22T10:21:25;1.40;;;1.15;;
26963;SDS011;14521;48.148;-1.656;2024-03-22T10:24:48;1.13;;;1.02;;
26963;SDS011;14521;48.148;-1.656;2024-03-22T10:28:10;1.27;;;1.20;;
26963;SDS011;14521;48.148;-1.656;2024-03-22T10:31:31;1.70;;;1.10;;
26963;SDS011;14521;48.148;-1.656;2024-03-22T10:34:54;1.52;;;1.33;;
26963;SDS011;14521;48.148;-1.656;2024-03-22T10:38:16;1.42;;;1.33;;
26963;SDS011;14521;48.148;-1.656;2024-03-22T10:41:39;3.80;;;1.20;;
26963;SDS011;14521;48.148;-1.656;2024-03-22T10:45:05;3.42;;;1.20;;
26963;SDS011;14521;48.148;-1.656;2024-03-22T10:48:28;1.15;;;1.00;;
26963;SDS011;14521;48.148;-1.656;2024-03-22T10:51:56;1.35;;;1.20;;
26963;SDS011;14521;48.148;-1.656;2024-03-22T10:58:53;1.50;;;1.10;;
26963;SDS011;14521;48.148;-1.656;2024-03-22T11:02:14;4.07;;;1.17;;
26963;SDS011;14521;48.148;-1.656;2024-03-22T11:05:48;1.23;;;1.10;;
26963;SDS011;14521;48.148;-1.656;2024-03-22T11:09:11;1.33;;;1.23;;
26963;SDS011;14521;48.148;-1.656;2024-03-22T11:12:41;1.65;;;1.08;;
26963;SDS011;14521;48.148;-1.656;2024-03-22T11:16:03;1.10;;;1.10;;
26963;SDS011;14521;48.148;-1.656;2024-03-22T11:19:24;1.50;;;1.33;;
26963;SDS011;14521;48.148;-1.656;2024-03-22T11:22:46;1.80;;;0.82;;
26963;SDS011;14521;48.148;-1.656;2024-03-22T11:26:07;1.15;;;1.05;;
26963;SDS011;14521;48.148;-1.656;2024-03-22T11:29:28;1.48;;;1.35;;
26963;SDS011;14521;48.148;-1.656;2024-03-22T11:32:50;1.42;;;1.33;;
26963;SDS011;14521;48.148;-1.656;2024-03-22T11:36:12;2.25;;;0.98;;
26963;SDS011;14521;48.148;-1.656;2024-03-22T11:39:34;1.70;;;1.05;;
26963;SDS011;14521;48.148;-1.656;2024-03-22T11:42:56;2.88;;;1.67;;
26963;SDS011;14521;48.148;-1.656;2024-03-22T11:46:18;1.20;;;1.10;;
26963;SDS011;14521;48.148;-1.656;2024-03-22T11:49:41;1.48;;;1.10;;
26963;SDS011;14521;48.148;-1.656;2024-03-22T11:53:04;1.50;;;1.40;;
26963;SDS011;14521;48.148;-1.656;2024-03-22T11:56:26;1.60;;;1.50;;
26963;SDS011;14521;48.148;-1.656;2024-03-22T11:59:48;2.38;;;1.50;;
26963;SDS011;14521;48.148;-1.656;2024-03-22T12:03:09;1.50;;;1.40;;
26963;SDS011;14521;48.148;-1.656;2024-03-22T12:06:32;1.48;;;1.33;;
26963;SDS011;14521;48.148;-1.656;2024-03-22T12:09:55;1.80;;;1.70;;
26963;SDS011;14521;48.148;-1.656;2024-03-22T12:13:17;1.40;;;1.30;;
26963;SDS011;14521;48.148;-1.656;2024-03-22T12:16:38;1.67;;;1.17;;
26963;SDS011;14521;48.148;-1.656;2024-03-22T12:19:59;2.50;;;1.48;;
26963;SDS011;14521;48.148;-1.656;2024-03-22T12:23:21;1.05;;;1.05;;
26963;SDS011;14521;48.148;-1.656;2024-03-22T12:26:42;4.40;;;1.30;;
26963;SDS011;14521;48.148;-1.656;2024-03-22T12:30:04;1.58;;;1.20;;
26963;SDS011;14521;48.148;-1.656;2024-03-22T12:33:26;1.45;;;1.35;;
26963;SDS011;14521;48.148;-1.656;2024-03-22T12:36:48;1.10;;;1.10;;
26963;SDS011;14521;48.148;-1.656;2024-03-22T12:40:10;1.15;;;1.05;;
26963;SDS011;14521;48.148;-1.656;2024-03-22T12:43:32;3.65;;;1.05;;
26963;SDS011;14521;48.148;-1.656;2024-03-22T12:46:54;2.17;;;1.02;;
26963;SDS011;14521;48.148;-1.656;2024-03-22T12:50:17;2.80;;;1.38;;
26963;SDS011;14521;48.148;-1.656;2024-03-22T12:53:39;1.15;;;1.00;;
26963;SDS011;14521;48.148;-1.656;2024-03-22T12:57:00;1.13;;;1.05;;
26963;SDS011;14521;48.148;-1.656;2024-03-22T13:00:23;1.67;;;0.90;;
26963;SDS011;14521;48.148;-1.656;2024-03-22T13:03:44;1.50;;;1.40;;
26963;SDS011;14521;48.148;-1.656;2024-03-22T13:07:06;1.40;;;1.30;;
26963;SDS011;14521;48.148;-1.656;2024-03-22T13:10:27;2.90;;;1.10;;
26963;SDS011;14521;48.148;-1.656;2024-03-22T13:13:48;1.00;;;1.00;;
26963;SDS011;14521;48.148;-1.656;2024-03-22T13:17:10;2.97;;;0.95;;
26963;SDS011;14521;48.148;-1.656;2024-03-22T13:20:32;1.10;;;1.00;;
26963;SDS011;14521;48.148;-1.656;2024-03-22T13:23:56;1.67;;;0.95;;
26963;SDS011;14521;48.148;-1.656;2024-03-22T13:27:17;1.27;;;1.27;;
26963;SDS011;14521;48.148;-1.656;2024-03-22T13:30:40;1.27;;;1.17;;
26963;SDS011;14521;48.148;-1.656;2024-03-22T13:34:02;1.40;;;1.30;;
26963;SDS011;14521;48.148;-1.656;2024-03-22T13:37:24;1.35;;;1.25;;
26963;SDS011;14521;48.148;-1.656;2024-03-22T13:40:52;1.13;;;1.10;;
26963;SDS011;14521;48.148;-1.656;2024-03-22T13:44:14;0.93;;;0.93;;
26963;SDS011;14521;48.148;-1.656;2024-03-22T13:47:35;1.33;;;1.27;;
26963;SDS011;14521;48.148;-1.656;2024-03-22T13:50:58;1.02;;;1.02;;
26963;SDS011;14521;48.148;-1.656;2024-03-22T13:54:19;1.20;;;1.10;;
26963;SDS011;14521;48.148;-1.656;2024-03-22T13:57:41;1.20;;;1.20;;
26963;SDS011;14521;48.148;-1.656;2024-03-22T14:01:03;1.40;;;1.30;;
26963;SDS011;14521;48.148;-1.656;2024-03-22T14:04:24;1.52;;;1.42;;
26963;SDS011;14521;48.148;-1.656;2024-03-22T14:07:47;0.88;;;0.88;;
26963;SDS011;14521;48.148;-1.656;2024-03-22T14:11:08;1.00;;;1.00;;
26963;SDS011;14521;48.148;-1.656;2024-03-22T14:14:29;1.33;;;1.30;;
26963;SDS011;14521;48.148;-1.656;2024-03-22T14:17:51;1.33;;;1.23;;
26963;SDS011;14521;48.148;-1.656;2024-03-22T14:21:12;1.45;;;1.40;;
26963;SDS011;14521;48.148;-1.656;2024-03-22T14:24:37;1.10;;;1.10;;
26963;SDS011;14521;48.148;-1.656;2024-03-22T14:28:00;1.10;;;1.10;;
26963;SDS011;14521;48.148;-1.656;2024-03-22T14:31:21;1.02;;;1.02;;
26963;SDS011;14521;48.148;-1.656;2024-03-22T14:34:42;1.10;;;1.10;;
26963;SDS011;14521;48.148;-1.656;2024-03-22T14:38:04;1.77;;;1.20;;
26963;SDS011;14521;48.148;-1.656;2024-03-22T14:41:25;1.42;;;1.40;;
26963;SDS011;14521;48.148;-1.656;2024-03-22T14:44:47;1.42;;;1.25;;
26963;SDS011;14521;48.148;-1.656;2024-03-22T14:48:08;1.40;;;1.30;;
26963;SDS011;14521;48.148;-1.656;2024-03-22T14:51:30;1.52;;;1.50;;
26963;SDS011;14521;48.148;-1.656;2024-03-22T14:54:51;1.77;;;1.17;;
26963;SDS011;14521;48.148;-1.656;2024-03-22T14:58:13;1.20;;;1.20;;
26963;SDS011;14521;48.148;-1.656;2024-03-22T15:01:34;1.42;;;1.33;;
26963;SDS011;14521;48.148;-1.656;2024-03-22T15:04:56;1.40;;;1.20;;
26963;SDS011;14521;48.148;-1.656;2024-03-22T15:08:17;1.20;;;1.20;;
26963;SDS011;14521;48.148;-1.656;2024-03-22T15:11:39;1.60;;;1.50;;
26963;SDS011;14521;48.148;-1.656;2024-03-22T15:15:00;1.20;;;1.20;;
26963;SDS011;14521;48.148;-1.656;2024-03-22T15:18:22;1.50;;;1.40;;
26963;SDS011;14521;48.148;-1.656;2024-03-22T15:21:44;1.40;;;1.30;;
26963;SDS011;14521;48.148;-1.656;2024-03-22T15:25:05;1.25;;;1.20;;
26963;SDS011;14521;48.148;-1.656;2024-03-22T15:28:26;3.50;;;1.25;;
26963;SDS011;14521;48.148;-1.656;2024-03-22T15:31:48;1.25;;;1.20;;
26963;SDS011;14521;48.148;-1.656;2024-03-22T15:35:10;1.17;;;0.98;;
26963;SDS011;14521;48.148;-1.656;2024-03-22T15:38:33;1.13;;;1.02;;
26963;SDS011;14521;48.148;-1.656;2024-03-22T15:41:54;1.40;;;1.30;;
26963;SDS011;14521;48.148;-1.656;2024-03-22T15:45:15;2.00;;;1.48;;
26963;SDS011;14521;48.148;-1.656;2024-03-22T15:48:37;1.52;;;1.42;;
26963;SDS011;14521;48.148;-1.656;2024-03-22T15:51:58;1.75;;;1.65;;
26963;SDS011;14521;48.148;-1.656;2024-03-22T15:55:20;1.52;;;1.42;;
26963;SDS011;14521;48.148;-1.656;2024-03-22T15:58:42;1.75;;;1.50;;
26963;SDS011;14521;48.148;-1.656;2024-03-22T16:02:04;2.08;;;1.60;;
26963;SDS011;14521;48.148;-1.656;2024-03-22T16:05:25;1.77;;;1.60;;
26963;SDS011;14521;48.148;-1.656;2024-03-22T16:08:47;1.60;;;1.50;;
26963;SDS011;14521;48.148;-1.656;2024-03-22T16:12:08;1.75;;;1.58;;
26963;SDS011;14521;48.148;-1.656;2024-03-22T16:15:30;3.15;;;1.50;;
26963;SDS011;14521;48.148;-1.656;2024-03-22T16:18:51;2.03;;;1.90;;
26963;SDS011;14521;48.148;-1.656;2024-03-22T16:22:13;1.70;;;1.60;;
26963;SDS011;14521;48.148;-1.656;2024-03-22T16:25:38;2.00;;;1.90;;
26963;SDS011;14521;48.148;-1.656;2024-03-22T16:28:59;1.80;;;1.70;;
26963;SDS011;14521;48.148;-1.656;2024-03-22T16:32:21;1.58;;;1.42;;
26963;SDS011;14521;48.148;-1.656;2024-03-22T16:35:42;1.63;;;1.52;;
26963;SDS011;14521;48.148;-1.656;2024-03-22T16:39:04;1.88;;;1.77;;
26963;SDS011;14521;48.148;-1.656;2024-03-22T16:42:26;1.60;;;1.50;;
26963;SDS011;14521;48.148;-1.656;2024-03-22T16:45:47;1.50;;;1.40;;
26963;SDS011;14521;48.148;-1.656;2024-03-22T16:49:09;1.63;;;1.48;;
26963;SDS011;14521;48.148;-1.656;2024-03-22T16:52:30;1.67;;;1.58;;
26963;SDS011;14521;48.148;-1.656;2024-03-22T16:55:52;1.63;;;1.52;;
26963;SDS011;14521;48.148;-1.656;2024-03-22T16:59:14;1.40;;;1.23;;
26963;SDS011;14521;48.148;-1.656;2024-03-22T17:02:37;1.73;;;1.60;;
26963;SDS011;14521;48.148;-1.656;2024-03-22T17:05:58;1.40;;;1.30;;
26963;SDS011;14521;48.148;-1.656;2024-03-22T17:09:19;2.30;;;2.20;;
26963;SDS011;14521;48.148;-1.656;2024-03-22T17:12:41;8.20;;;7.50;;
26963;SDS011;14521;48.148;-1.656;2024-03-22T17:16:02;18.17;;;15.80;;
26963;SDS011;14521;48.148;-1.656;2024-03-22T17:19:25;20.33;;;18.20;;
26963;SDS011;14521;48.148;-1.656;2024-03-22T17:22:46;18.85;;;16.92;;
26963;SDS011;14521;48.148;-1.656;2024-03-22T17:26:07;17.30;;;15.13;;
26963;SDS011;14521;48.148;-1.656;2024-03-22T17:29:29;16.88;;;14.95;;
26963;SDS011;14521;48.148;-1.656;2024-03-22T17:32:50;13.13;;;11.75;;
26963;SDS011;14521;48.148;-1.656;2024-03-22T17:36:11;17.88;;;16.08;;
26963;SDS011;14521;48.148;-1.656;2024-03-22T17:39:33;16.85;;;15.30;;
26963;SDS011;14521;48.148;-1.656;2024-03-22T17:42:54;23.67;;;21.27;;
26963;SDS011;14521;48.148;-1.656;2024-03-22T17:46:15;22.40;;;20.20;;
26963;SDS011;14521;48.148;-1.656;2024-03-22T17:49:37;21.55;;;19.27;;
26963;SDS011;14521;48.148;-1.656;2024-03-22T17:52:58;19.23;;;17.30;;
26963;SDS011;14521;48.148;-1.656;2024-03-22T17:56:19;21.20;;;16.90;;
26963;SDS011;14521;48.148;-1.656;2024-03-22T17:59:41;19.50;;;17.42;;
26963;SDS011;14521;48.148;-1.656;2024-03-22T18:03:03;18.65;;;16.42;;
26963;SDS011;14521;48.148;-1.656;2024-03-22T18:06:24;18.83;;;16.88;;
26963;SDS011;14521;48.148;-1.656;2024-03-22T18:09:46;18.30;;;16.10;;
26963;SDS011;14521;48.148;-1.656;2024-03-22T18:13:08;16.67;;;14.90;;
26963;SDS011;14521;48.148;-1.656;2024-03-22T18:16:29;18.58;;;16.52;;
26963;SDS011;14521;48.148;-1.656;2024-03-22T18:19:52;21.98;;;15.65;;
26963;SDS011;14521;48.148;-1.656;2024-03-22T18:23:14;17.48;;;14.65;;
26963;SDS011;14521;48.148;-1.656;2024-03-22T18:26:39;16.38;;;14.68;;
26963;SDS011;14521;48.148;-1.656;2024-03-22T18:30:01;15.45;;;13.85;;
26963;SDS011;14521;48.148;-1.656;2024-03-22T18:33:22;15.23;;;13.43;;
26963;SDS011;14521;48.148;-1.656;2024-03-22T18:36:43;16.83;;;13.05;;
26963;SDS011;14521;48.148;-1.656;2024-03-22T18:40:05;15.32;;;12.82;;
26963;SDS011;14521;48.148;-1.656;2024-03-22T18:43:27;14.27;;;12.05;;
26963;SDS011;14521;48.148;-1.656;2024-03-22T18:46:49;13.02;;;11.73;;
26963;SDS011;14521;48.148;-1.656;2024-03-22T18:50:10;17.08;;;12.15;;
26963;SDS011;14521;48.148;-1.656;2024-03-22T18:53:35;13.98;;;11.40;;
26963;SDS011;14521;48.148;-1.656;2024-03-22T18:56:56;10.85;;;9.75;;
26963;SDS011;14521;48.148;-1.656;2024-03-22T19:00:18;13.60;;;10.98;;
26963;SDS011;14521;48.148;-1.656;2024-03-22T19:03:39;11.48;;;10.10;;
26963;SDS011;14521;48.148;-1.656;2024-03-22T19:07:01;10.35;;;9.30;;
26963;SDS011;14521;48.148;-1.656;2024-03-22T19:10:23;9.52;;;8.50;;
26963;SDS011;14521;48.148;-1.656;2024-03-22T19:13:45;8.27;;;7.47;;
26963;SDS011;14521;48.148;-1.656;2024-03-22T19:17:07;8.07;;;7.13;;
26963;SDS011;14521;48.148;-1.656;2024-03-22T19:20:29;8.55;;;7.40;;
26963;SDS011;14521;48.148;-1.656;2024-03-22T19:23:50;8.07;;;6.72;;
26963;SDS011;14521;48.148;-1.656;2024-03-22T19:27:11;8.40;;;7.00;;
26963;SDS011;14521;48.148;-1.656;2024-03-22T19:30:34;8.63;;;7.32;;
26963;SDS011;14521;48.148;-1.656;2024-03-22T19:33:56;8.13;;;6.55;;
26963;SDS011;14521;48.148;-1.656;2024-03-22T19:37:17;7.30;;;6.70;;
26963;SDS011;14521;48.148;-1.656;2024-03-22T19:40:39;7.90;;;6.32;;
26963;SDS011;14521;48.148;-1.656;2024-03-22T19:44:01;7.20;;;6.00;;
26963;SDS011;14521;48.148;-1.656;2024-03-22T19:47:23;7.18;;;5.75;;
26963;SDS011;14521;48.148;-1.656;2024-03-22T19:50:45;9.18;;;6.32;;
26963;SDS011;14521;48.148;-1.656;2024-03-22T19:54:06;8.80;;;5.00;;
26963;SDS011;14521;48.148;-1.656;2024-03-22T19:57:28;5.43;;;4.93;;
26963;SDS011;14521;48.148;-1.656;2024-03-22T20:00:49;5.88;;;5.28;;